sensor_id;sensor_type;location;lat;lon;timestamp;P1;durP1;ratioP1;P2;durP2;ratioP2
19414;SDS011;9843;48.882;12.592;2023-05-21T00:00:51;12.17;;;10.90;;
19414;SDS011;9843;48.882;12.592;2023-05-21T00:03:19;10.23;;;9.10;;
19414;SDS011;9843;48.882;12.592;2023-05-21T00:05:48;13.70;;;9.40;;
19414;SDS011;9843;48.882;12.592;2023-05-21T00:08:15;12.40;;;9.60;;
19414;SDS011;9843;48.882;12.592;2023-05-21T00:10:42;10.63;;;8.83;;
19414;SDS011;9843;48.882;12.592;2023-05-21T00:13:10;11.43;;;10.17;;
19414;SDS011;9843;48.882;12.592;2023-05-21T00:15:37;13.57;;;9.93;;
19414;SDS011;9843;48.882;12.592;2023-05-21T00:18:05;11.70;;;10.00;;
19414;SDS011;9843;48.882;12.592;2023-05-21T00:20:32;11.83;;;10.17;;
19414;SDS011;9843;48.882;12.592;2023-05-21T00:22:59;11.67;;;8.67;;
19414;SDS011;9843;48.882;12.592;2023-05-21T00:25:27;12.30;;;10.90;;
19414;SDS011;9843;48.882;12.592;2023-05-21T00:27:54;12.93;;;10.63;;
19414;SDS011;9843;48.882;12.592;2023-05-21T00:30:24;11.87;;;9.87;;
19414;SDS011;9843;48.882;12.592;2023-05-21T00:32:51;15.93;;;9.03;;
19414;SDS011;9843;48.882;12.592;2023-05-21T00:35:18;12.53;;;11.07;;
19414;SDS011;9843;48.882;12.592;2023-05-21T00:37:45;11.67;;;9.37;;
19414;SDS011;9843;48.882;12.592;2023-05-21T00:40:12;11.83;;;9.73;;
19414;SDS011;9843;48.882;12.592;2023-05-21T00:42:40;12.60;;;9.73;;
19414;SDS011;9843;48.882;12.592;2023-05-21T00:45:11;15.47;;;10.20;;
19414;SDS011;9843;48.882;12.592;2023-05-21T00:47:41;16.03;;;10.00;;
19414;SDS011;9843;48.882;12.592;2023-05-21T00:50:09;20.40;;;11.03;;
19414;SDS011;9843;48.882;12.592;2023-05-21T00:52:36;15.20;;;10.30;;
19414;SDS011;9843;48.882;12.592;2023-05-21T00:55:06;13.03;;;11.63;;
19414;SDS011;9843;48.882;12.592;2023-05-21T00:57:34;19.57;;;10.83;;
19414;SDS011;9843;48.882;12.592;2023-05-21T01:00:02;11.93;;;9.93;;
19414;SDS011;9843;48.882;12.592;2023-05-21T01:02:31;18.43;;;12.20;;
19414;SDS011;9843;48.882;12.592;2023-05-21T01:04:59;12.80;;;10.80;;
19414;SDS011;9843;48.882;12.592;2023-05-21T01:07:28;13.87;;;11.27;;
19414;SDS011;9843;48.882;12.592;2023-05-21T01:09:58;10.83;;;9.67;;
19414;SDS011;9843;48.882;12.592;2023-05-21T01:12:26;16.27;;;10.30;;
19414;SDS011;9843;48.882;12.592;2023-05-21T01:14:53;9.90;;;8.53;;
19414;SDS011;9843;48.882;12.592;2023-05-21T01:17:21;10.77;;;9.67;;
19414;SDS011;9843;48.882;12.592;2023-05-21T01:19:48;12.60;;;10.43;;
19414;SDS011;9843;48.882;12.592;2023-05-21T01:22:18;14.77;;;10.20;;
19414;SDS011;9843;48.882;12.592;2023-05-21T01:24:50;29.47;;;11.50;;
19414;SDS011;9843;48.882;12.592;2023-05-21T01:27:19;11.67;;;10.47;;
19414;SDS011;9843;48.882;12.592;2023-05-21T01:29:46;10.47;;;8.70;;
19414;SDS011;9843;48.882;12.592;2023-05-21T01:32:15;16.53;;;11.00;;
19414;SDS011;9843;48.882;12.592;2023-05-21T01:34:47;14.43;;;11.70;;
19414;SDS011;9843;48.882;12.592;2023-05-21T01:37:19;12.10;;;10.90;;
19414;SDS011;9843;48.882;12.592;2023-05-21T01:39:49;13.20;;;9.33;;
19414;SDS011;9843;48.882;12.592;2023-05-21T01:42:19;11.80;;;9.77;;
19414;SDS011;9843;48.882;12.592;2023-05-21T01:44:48;12.77;;;9.17;;
19414;SDS011;9843;48.882;12.592;2023-05-21T01:47:17;14.87;;;11.20;;
19414;SDS011;9843;48.882;12.592;2023-05-21T01:49:44;17.73;;;11.13;;
19414;SDS011;9843;48.882;12.592;2023-05-21T01:52:11;12.87;;;11.50;;
19414;SDS011;9843;48.882;12.592;2023-05-21T01:54:39;11.43;;;10.30;;
19414;SDS011;9843;48.882;12.592;2023-05-21T01:57:06;14.10;;;9.93;;
19414;SDS011;9843;48.882;12.592;2023-05-21T01:59:34;14.50;;;10.90;;
19414;SDS011;9843;48.882;12.592;2023-05-21T02:02:01;14.30;;;11.83;;
19414;SDS011;9843;48.882;12.592;2023-05-21T02:04:28;11.93;;;10.50;;
19414;SDS011;9843;48.882;12.592;2023-05-21T02:06:55;15.83;;;11.07;;
19414;SDS011;9843;48.882;12.592;2023-05-21T02:09:22;14.17;;;10.40;;
19414;SDS011;9843;48.882;12.592;2023-05-21T02:11:49;12.07;;;10.83;;
19414;SDS011;9843;48.882;12.592;2023-05-21T02:14:16;10.90;;;9.77;;
19414;SDS011;9843;48.882;12.592;2023-05-21T02:16:45;15.83;;;10.80;;
19414;SDS011;9843;48.882;12.592;2023-05-21T02:19:12;11.10;;;9.67;;
19414;SDS011;9843;48.882;12.592;2023-05-21T02:21:39;12.33;;;10.00;;
19414;SDS011;9843;48.882;12.592;2023-05-21T02:24:06;12.47;;;10.07;;
19414;SDS011;9843;48.882;12.592;2023-05-21T02:26:33;11.37;;;10.17;;
19414;SDS011;9843;48.882;12.592;2023-05-21T02:29:02;16.70;;;10.73;;
19414;SDS011;9843;48.882;12.592;2023-05-21T02:31:29;16.20;;;11.03;;
19414;SDS011;9843;48.882;12.592;2023-05-21T02:33:57;13.10;;;11.43;;
19414;SDS011;9843;48.882;12.592;2023-05-21T02:36:24;12.77;;;11.53;;
19414;SDS011;9843;48.882;12.592;2023-05-21T02:38:52;11.10;;;10.00;;
19414;SDS011;9843;48.882;12.592;2023-05-21T02:41:21;14.23;;;12.20;;
19414;SDS011;9843;48.882;12.592;2023-05-21T02:43:48;13.43;;;11.37;;
19414;SDS011;9843;48.882;12.592;2023-05-21T02:46:15;20.17;;;12.70;;
19414;SDS011;9843;48.882;12.592;2023-05-21T02:48:42;17.20;;;13.97;;
19414;SDS011;9843;48.882;12.592;2023-05-21T02:51:11;16.13;;;12.47;;
19414;SDS011;9843;48.882;12.592;2023-05-21T02:53:38;15.50;;;12.80;;
19414;SDS011;9843;48.882;12.592;2023-05-21T02:56:05;13.03;;;11.40;;
19414;SDS011;9843;48.882;12.592;2023-05-21T02:58:32;16.10;;;11.73;;
19414;SDS011;9843;48.882;12.592;2023-05-21T03:00:59;21.87;;;11.93;;
19414;SDS011;9843;48.882;12.592;2023-05-21T03:03:27;15.37;;;10.97;;
19414;SDS011;9843;48.882;12.592;2023-05-21T03:05:54;13.70;;;12.27;;
19414;SDS011;9843;48.882;12.592;2023-05-21T03:08:23;13.73;;;11.53;;
19414;SDS011;9843;48.882;12.592;2023-05-21T03:10:51;16.23;;;11.50;;
19414;SDS011;9843;48.882;12.592;2023-05-21T03:13:18;19.57;;;12.30;;
19414;SDS011;9843;48.882;12.592;2023-05-21T03:15:45;14.57;;;11.23;;
19414;SDS011;9843;48.882;12.592;2023-05-21T03:18:12;18.00;;;14.10;;
19414;SDS011;9843;48.882;12.592;2023-05-21T03:20:40;13.70;;;10.57;;
19414;SDS011;9843;48.882;12.592;2023-05-21T03:23:09;17.23;;;12.17;;
19414;SDS011;9843;48.882;12.592;2023-05-21T03:25:38;16.33;;;13.03;;
19414;SDS011;9843;48.882;12.592;2023-05-21T03:28:05;24.50;;;13.57;;
19414;SDS011;9843;48.882;12.592;2023-05-21T03:30:34;15.80;;;11.80;;
19414;SDS011;9843;48.882;12.592;2023-05-21T03:33:02;13.13;;;11.77;;
19414;SDS011;9843;48.882;12.592;2023-05-21T03:35:30;15.07;;;13.47;;
19414;SDS011;9843;48.882;12.592;2023-05-21T03:37:58;14.70;;;13.10;;
19414;SDS011;9843;48.882;12.592;2023-05-21T03:40:25;17.23;;;11.47;;
19414;SDS011;9843;48.882;12.592;2023-05-21T03:42:54;17.50;;;11.47;;
19414;SDS011;9843;48.882;12.592;2023-05-21T03:45:21;14.83;;;11.37;;
19414;SDS011;9843;48.882;12.592;2023-05-21T03:47:48;13.70;;;12.27;;
19414;SDS011;9843;48.882;12.592;2023-05-21T03:50:15;13.17;;;11.80;;
19414;SDS011;9843;48.882;12.592;2023-05-21T03:52:42;12.70;;;10.93;;
19414;SDS011;9843;48.882;12.592;2023-05-21T03:55:09;14.23;;;11.00;;
19414;SDS011;9843;48.882;12.592;2023-05-21T03:57:36;19.47;;;11.67;;
19414;SDS011;9843;48.882;12.592;2023-05-21T04:00:05;13.43;;;11.80;;
19414;SDS011;9843;48.882;12.592;2023-05-21T04:02:34;13.97;;;12.10;;
19414;SDS011;9843;48.882;12.592;2023-05-21T04:05:01;11.93;;;10.73;;
19414;SDS011;9843;48.882;12.592;2023-05-21T04:07:29;15.90;;;11.83;;
19414;SDS011;9843;48.882;12.592;2023-05-21T04:09:56;16.03;;;13.63;;
19414;SDS011;9843;48.882;12.592;2023-05-21T04:12:23;14.70;;;12.13;;
19414;SDS011;9843;48.882;12.592;2023-05-21T04:14:50;13.83;;;11.77;;
19414;SDS011;9843;48.882;12.592;2023-05-21T04:17:18;19.03;;;15.50;;
19414;SDS011;9843;48.882;12.592;2023-05-21T04:19:45;14.07;;;11.73;;
19414;SDS011;9843;48.882;12.592;2023-05-21T04:22:12;12.83;;;10.20;;
19414;SDS011;9843;48.882;12.592;2023-05-21T04:24:39;16.30;;;12.07;;
19414;SDS011;9843;48.882;12.592;2023-05-21T04:27:07;20.50;;;12.47;;
19414;SDS011;9843;48.882;12.592;2023-05-21T04:29:34;16.43;;;12.50;;
19414;SDS011;9843;48.882;12.592;2023-05-21T04:32:06;14.37;;;11.93;;
19414;SDS011;9843;48.882;12.592;2023-05-21T04:34:35;17.70;;;14.83;;
19414;SDS011;9843;48.882;12.592;2023-05-21T04:37:03;14.33;;;12.80;;
19414;SDS011;9843;48.882;12.592;2023-05-21T04:39:30;13.40;;;12.03;;
19414;SDS011;9843;48.882;12.592;2023-05-21T04:41:58;13.90;;;11.83;;
19414;SDS011;9843;48.882;12.592;2023-05-21T04:44:27;17.27;;;14.23;;
19414;SDS011;9843;48.882;12.592;2023-05-21T04:46:54;13.63;;;12.27;;
19414;SDS011;9843;48.882;12.592;2023-05-21T04:49:22;14.07;;;10.23;;
19414;SDS011;9843;48.882;12.592;2023-05-21T04:51:51;19.90;;;13.63;;
19414;SDS011;9843;48.882;12.592;2023-05-21T04:54:18;14.53;;;12.60;;
19414;SDS011;9843;48.882;12.592;2023-05-21T04:56:45;16.13;;;14.17;;
19414;SDS011;9843;48.882;12.592;2023-05-21T04:59:12;15.47;;;12.43;;
19414;SDS011;9843;48.882;12.592;2023-05-21T05:01:39;14.47;;;12.60;;
19414;SDS011;9843;48.882;12.592;2023-05-21T05:04:07;15.27;;;13.70;;
19414;SDS011;9843;48.882;12.592;2023-05-21T05:06:34;14.93;;;11.20;;
19414;SDS011;9843;48.882;12.592;2023-05-21T05:09:03;13.30;;;11.87;;
19414;SDS011;9843;48.882;12.592;2023-05-21T05:11:30;12.33;;;11.00;;
19414;SDS011;9843;48.882;12.592;2023-05-21T05:13:57;15.17;;;12.43;;
19414;SDS011;9843;48.882;12.592;2023-05-21T05:16:24;14.73;;;13.23;;
19414;SDS011;9843;48.882;12.592;2023-05-21T05:18:52;13.00;;;11.63;;
19414;SDS011;9843;48.882;12.592;2023-05-21T05:21:20;16.33;;;13.00;;
19414;SDS011;9843;48.882;12.592;2023-05-21T05:23:47;15.13;;;13.37;;
19414;SDS011;9843;48.882;12.592;2023-05-21T05:26:15;16.90;;;11.37;;
19414;SDS011;9843;48.882;12.592;2023-05-21T05:28:42;16.70;;;11.53;;
19414;SDS011;9843;48.882;12.592;2023-05-21T05:31:10;14.60;;;12.23;;
19414;SDS011;9843;48.882;12.592;2023-05-21T05:33:37;17.60;;;13.33;;
19414;SDS011;9843;48.882;12.592;2023-05-21T05:36:05;13.30;;;11.03;;
19414;SDS011;9843;48.882;12.592;2023-05-21T05:38:32;13.20;;;11.57;;
19414;SDS011;9843;48.882;12.592;2023-05-21T05:40:59;16.80;;;13.00;;
19414;SDS011;9843;48.882;12.592;2023-05-21T05:43:28;12.90;;;11.30;;
19414;SDS011;9843;48.882;12.592;2023-05-21T05:45:55;12.60;;;11.30;;
19414;SDS011;9843;48.882;12.592;2023-05-21T05:48:22;14.63;;;11.67;;
19414;SDS011;9843;48.882;12.592;2023-05-21T05:50:49;15.37;;;12.03;;
19414;SDS011;9843;48.882;12.592;2023-05-21T05:53:18;14.23;;;11.70;;
19414;SDS011;9843;48.882;12.592;2023-05-21T05:55:45;16.97;;;11.27;;
19414;SDS011;9843;48.882;12.592;2023-05-21T05:58:12;13.80;;;11.60;;
19414;SDS011;9843;48.882;12.592;2023-05-21T06:00:41;13.83;;;10.30;;
19414;SDS011;9843;48.882;12.592;2023-05-21T06:03:08;15.87;;;11.70;;
19414;SDS011;9843;48.882;12.592;2023-05-21T06:05:35;13.77;;;11.97;;
19414;SDS011;9843;48.882;12.592;2023-05-21T06:08:03;13.27;;;11.83;;
19414;SDS011;9843;48.882;12.592;2023-05-21T06:10:30;10.47;;;9.37;;
19414;SDS011;9843;48.882;12.592;2023-05-21T06:12:57;12.67;;;10.13;;
19414;SDS011;9843;48.882;12.592;2023-05-21T06:15:24;11.00;;;9.90;;
19414;SDS011;9843;48.882;12.592;2023-05-21T06:17:52;13.27;;;11.87;;
19414;SDS011;9843;48.882;12.592;2023-05-21T06:20:19;15.30;;;11.27;;
19414;SDS011;9843;48.882;12.592;2023-05-21T06:22:46;16.23;;;12.87;;
19414;SDS011;9843;48.882;12.592;2023-05-21T06:25:13;10.90;;;9.70;;
19414;SDS011;9843;48.882;12.592;2023-05-21T06:27:42;13.07;;;9.30;;
19414;SDS011;9843;48.882;12.592;2023-05-21T06:30:09;12.07;;;10.77;;
19414;SDS011;9843;48.882;12.592;2023-05-21T06:32:36;15.17;;;11.50;;
19414;SDS011;9843;48.882;12.592;2023-05-21T06:35:05;12.10;;;9.33;;
19414;SDS011;9843;48.882;12.592;2023-05-21T06:37:32;15.83;;;11.07;;
19414;SDS011;9843;48.882;12.592;2023-05-21T06:40:00;14.70;;;11.30;;
19414;SDS011;9843;48.882;12.592;2023-05-21T06:42:27;15.67;;;11.33;;
19414;SDS011;9843;48.882;12.592;2023-05-21T06:44:54;11.03;;;9.70;;
19414;SDS011;9843;48.882;12.592;2023-05-21T06:47:21;12.70;;;9.93;;
19414;SDS011;9843;48.882;12.592;2023-05-21T06:49:48;16.83;;;11.33;;
19414;SDS011;9843;48.882;12.592;2023-05-21T06:52:16;13.67;;;10.63;;
19414;SDS011;9843;48.882;12.592;2023-05-21T06:54:43;14.00;;;10.93;;
19414;SDS011;9843;48.882;12.592;2023-05-21T06:57:10;14.27;;;10.27;;
19414;SDS011;9843;48.882;12.592;2023-05-21T06:59:37;19.00;;;9.90;;
19414;SDS011;9843;48.882;12.592;2023-05-21T07:02:05;11.50;;;10.37;;
19414;SDS011;9843;48.882;12.592;2023-05-21T07:04:32;10.70;;;9.70;;
19414;SDS011;9843;48.882;12.592;2023-05-21T07:06:59;21.50;;;11.70;;
19414;SDS011;9843;48.882;12.592;2023-05-21T07:09:29;14.60;;;10.57;;
19414;SDS011;9843;48.882;12.592;2023-05-21T07:11:56;11.60;;;9.30;;
19414;SDS011;9843;48.882;12.592;2023-05-21T07:14:23;13.70;;;9.63;;
19414;SDS011;9843;48.882;12.592;2023-05-21T07:16:51;15.20;;;10.00;;
19414;SDS011;9843;48.882;12.592;2023-05-21T07:19:18;15.97;;;10.33;;
19414;SDS011;9843;48.882;12.592;2023-05-21T07:21:45;13.80;;;10.43;;
19414;SDS011;9843;48.882;12.592;2023-05-21T07:24:12;15.23;;;9.63;;
19414;SDS011;9843;48.882;12.592;2023-05-21T07:26:40;12.50;;;9.07;;
19414;SDS011;9843;48.882;12.592;2023-05-21T07:29:07;10.43;;;9.30;;
19414;SDS011;9843;48.882;12.592;2023-05-21T07:31:34;14.87;;;9.43;;
19414;SDS011;9843;48.882;12.592;2023-05-21T07:34:01;17.53;;;9.67;;
19414;SDS011;9843;48.882;12.592;2023-05-21T07:36:28;10.57;;;7.90;;
19414;SDS011;9843;48.882;12.592;2023-05-21T07:38:57;10.90;;;8.50;;
19414;SDS011;9843;48.882;12.592;2023-05-21T07:41:24;10.30;;;8.00;;
19414;SDS011;9843;48.882;12.592;2023-05-21T07:43:52;13.83;;;9.13;;
19414;SDS011;9843;48.882;12.592;2023-05-21T07:46:19;13.13;;;8.87;;
19414;SDS011;9843;48.882;12.592;2023-05-21T07:48:47;10.43;;;7.37;;
19414;SDS011;9843;48.882;12.592;2023-05-21T07:51:14;11.43;;;7.63;;
19414;SDS011;9843;48.882;12.592;2023-05-21T07:53:41;9.93;;;8.43;;
19414;SDS011;9843;48.882;12.592;2023-05-21T07:56:08;8.40;;;7.50;;
19414;SDS011;9843;48.882;12.592;2023-05-21T07:58:35;9.05;;;7.03;;
19414;SDS011;9843;48.882;12.592;2023-05-21T08:01:04;14.60;;;8.73;;
19414;SDS011;9843;48.882;12.592;2023-05-21T08:03:31;11.88;;;7.50;;
19414;SDS011;9843;48.882;12.592;2023-05-21T08:05:58;10.23;;;7.13;;
19414;SDS011;9843;48.882;12.592;2023-05-21T08:08:25;10.63;;;6.90;;
19414;SDS011;9843;48.882;12.592;2023-05-21T08:10:52;11.13;;;8.85;;
19414;SDS011;9843;48.882;12.592;2023-05-21T08:13:20;10.80;;;6.70;;
19414;SDS011;9843;48.882;12.592;2023-05-21T08:15:47;7.53;;;6.70;;
19414;SDS011;9843;48.882;12.592;2023-05-21T08:18:16;21.63;;;7.57;;
19414;SDS011;9843;48.882;12.592;2023-05-21T08:20:43;9.57;;;5.95;;
19414;SDS011;9843;48.882;12.592;2023-05-21T08:23:10;7.63;;;6.43;;
19414;SDS011;9843;48.882;12.592;2023-05-21T08:25:37;12.32;;;6.70;;
19414;SDS011;9843;48.882;12.592;2023-05-21T08:28:04;12.82;;;7.20;;
19414;SDS011;9843;48.882;12.592;2023-05-21T08:30:31;13.48;;;6.93;;
19414;SDS011;9843;48.882;12.592;2023-05-21T08:32:58;9.20;;;6.05;;
19414;SDS011;9843;48.882;12.592;2023-05-21T08:35:27;6.93;;;6.20;;
19414;SDS011;9843;48.882;12.592;2023-05-21T08:37:54;13.57;;;7.38;;
19414;SDS011;9843;48.882;12.592;2023-05-21T08:40:21;7.78;;;6.30;;
19414;SDS011;9843;48.882;12.592;2023-05-21T08:42:48;9.50;;;6.97;;
19414;SDS011;9843;48.882;12.592;2023-05-21T08:45:18;18.88;;;6.90;;
19414;SDS011;9843;48.882;12.592;2023-05-21T08:47:46;10.55;;;7.93;;
19414;SDS011;9843;48.882;12.592;2023-05-21T08:50:14;11.93;;;6.97;;
19414;SDS011;9843;48.882;12.592;2023-05-21T08:52:44;7.38;;;5.90;;
19414;SDS011;9843;48.882;12.592;2023-05-21T08:55:11;7.22;;;6.30;;
19414;SDS011;9843;48.882;12.592;2023-05-21T08:57:41;9.93;;;6.88;;
19414;SDS011;9843;48.882;12.592;2023-05-21T09:00:08;10.18;;;7.25;;
19414;SDS011;9843;48.882;12.592;2023-05-21T09:02:36;10.52;;;5.85;;
19414;SDS011;9843;48.882;12.592;2023-05-21T09:05:04;11.98;;;7.13;;
19414;SDS011;9843;48.882;12.592;2023-05-21T09:07:33;8.82;;;6.45;;
19414;SDS011;9843;48.882;12.592;2023-05-21T09:10:03;9.15;;;6.43;;
19414;SDS011;9843;48.882;12.592;2023-05-21T09:12:33;12.52;;;6.15;;
19414;SDS011;9843;48.882;12.592;2023-05-21T09:15:01;10.18;;;6.18;;
19414;SDS011;9843;48.882;12.592;2023-05-21T09:17:29;12.38;;;7.22;;
19414;SDS011;9843;48.882;12.592;2023-05-21T09:20:03;8.88;;;5.97;;
19414;SDS011;9843;48.882;12.592;2023-05-21T09:22:33;10.70;;;6.25;;
19414;SDS011;9843;48.882;12.592;2023-05-21T09:25:04;10.18;;;5.50;;
19414;SDS011;9843;48.882;12.592;2023-05-21T09:27:32;13.52;;;6.40;;
19414;SDS011;9843;48.882;12.592;2023-05-21T09:30:00;6.93;;;4.95;;
19414;SDS011;9843;48.882;12.592;2023-05-21T09:32:27;7.78;;;5.85;;
19414;SDS011;9843;48.882;12.592;2023-05-21T09:34:54;10.90;;;5.45;;
19414;SDS011;9843;48.882;12.592;2023-05-21T09:37:21;8.13;;;6.35;;
19414;SDS011;9843;48.882;12.592;2023-05-21T09:39:48;9.13;;;6.13;;
19414;SDS011;9843;48.882;12.592;2023-05-21T09:42:17;9.98;;;5.75;;
19414;SDS011;9843;48.882;12.592;2023-05-21T09:44:46;9.98;;;6.15;;
19414;SDS011;9843;48.882;12.592;2023-05-21T09:47:18;5.47;;;4.78;;
19414;SDS011;9843;48.882;12.592;2023-05-21T09:49:46;12.77;;;5.80;;
19414;SDS011;9843;48.882;12.592;2023-05-21T09:52:13;10.25;;;5.35;;
19414;SDS011;9843;48.882;12.592;2023-05-21T09:54:48;10.95;;;6.22;;
19414;SDS011;9843;48.882;12.592;2023-05-21T09:57:23;9.40;;;5.65;;
19414;SDS011;9843;48.882;12.592;2023-05-21T09:59:50;6.93;;;6.22;;
19414;SDS011;9843;48.882;12.592;2023-05-21T10:02:18;9.32;;;6.28;;
19414;SDS011;9843;48.882;12.592;2023-05-21T10:04:46;11.93;;;5.93;;
19414;SDS011;9843;48.882;12.592;2023-05-21T10:07:14;6.82;;;5.55;;
19414;SDS011;9843;48.882;12.592;2023-05-21T10:09:42;10.40;;;6.10;;
19414;SDS011;9843;48.882;12.592;2023-05-21T10:12:10;11.13;;;6.45;;
19414;SDS011;9843;48.882;12.592;2023-05-21T10:14:38;10.93;;;6.05;;
19414;SDS011;9843;48.882;12.592;2023-05-21T10:17:06;8.35;;;5.80;;
19414;SDS011;9843;48.882;12.592;2023-05-21T10:19:34;17.92;;;6.07;;
19414;SDS011;9843;48.882;12.592;2023-05-21T10:22:02;6.93;;;5.45;;
19414;SDS011;9843;48.882;12.592;2023-05-21T10:24:29;10.07;;;6.13;;
19414;SDS011;9843;48.882;12.592;2023-05-21T10:26:57;14.70;;;7.55;;
19414;SDS011;9843;48.882;12.592;2023-05-21T10:29:24;8.00;;;5.68;;
19414;SDS011;9843;48.882;12.592;2023-05-21T10:31:52;6.78;;;6.07;;
19414;SDS011;9843;48.882;12.592;2023-05-21T10:34:20;8.07;;;6.50;;
19414;SDS011;9843;48.882;12.592;2023-05-21T10:36:47;11.27;;;6.65;;
19414;SDS011;9843;48.882;12.592;2023-05-21T10:39:14;9.55;;;5.93;;
19414;SDS011;9843;48.882;12.592;2023-05-21T10:41:45;7.25;;;5.57;;
19414;SDS011;9843;48.882;12.592;2023-05-21T10:44:17;7.03;;;5.85;;
19414;SDS011;9843;48.882;12.592;2023-05-21T10:46:52;8.18;;;5.15;;
19414;SDS011;9843;48.882;12.592;2023-05-21T10:49:32;4.95;;;4.43;;
19414;SDS011;9843;48.882;12.592;2023-05-21T10:52:03;7.25;;;4.43;;
19414;SDS011;9843;48.882;12.592;2023-05-21T10:57:23;16.35;;;5.55;;
19414;SDS011;9843;48.882;12.592;2023-05-21T10:59:52;8.52;;;4.93;;
19414;SDS011;9843;48.882;12.592;2023-05-21T11:02:20;8.05;;;5.50;;
19414;SDS011;9843;48.882;12.592;2023-05-21T11:04:48;4.93;;;4.45;;
19414;SDS011;9843;48.882;12.592;2023-05-21T11:07:27;7.30;;;5.20;;
19414;SDS011;9843;48.882;12.592;2023-05-21T11:13:05;6.70;;;5.15;;
19414;SDS011;9843;48.882;12.592;2023-05-21T11:18:14;9.88;;;4.55;;
19414;SDS011;9843;48.882;12.592;2023-05-21T11:20:44;8.85;;;4.65;;
19414;SDS011;9843;48.882;12.592;2023-05-21T11:23:16;7.20;;;5.22;;
19414;SDS011;9843;48.882;12.592;2023-05-21T11:25:43;9.00;;;4.50;;
19414;SDS011;9843;48.882;12.592;2023-05-21T11:28:10;10.55;;;5.53;;
19414;SDS011;9843;48.882;12.592;2023-05-21T11:30:37;11.50;;;5.47;;
19414;SDS011;9843;48.882;12.592;2023-05-21T11:33:16;5.60;;;4.72;;
19414;SDS011;9843;48.882;12.592;2023-05-21T11:35:55;7.05;;;5.05;;
19414;SDS011;9843;48.882;12.592;2023-05-21T11:38:24;8.60;;;5.15;;
19414;SDS011;9843;48.882;12.592;2023-05-21T11:40:51;6.50;;;5.72;;
19414;SDS011;9843;48.882;12.592;2023-05-21T11:43:19;9.60;;;4.78;;
19414;SDS011;9843;48.882;12.592;2023-05-21T11:45:46;7.53;;;4.22;;
19414;SDS011;9843;48.882;12.592;2023-05-21T11:48:13;9.07;;;5.22;;
19414;SDS011;9843;48.882;12.592;2023-05-21T11:50:40;6.85;;;4.82;;
19414;SDS011;9843;48.882;12.592;2023-05-21T11:53:09;8.32;;;4.65;;
19414;SDS011;9843;48.882;12.592;2023-05-21T11:55:36;7.53;;;4.70;;
19414;SDS011;9843;48.882;12.592;2023-05-21T11:58:04;5.38;;;4.72;;
19414;SDS011;9843;48.882;12.592;2023-05-21T12:00:36;6.47;;;4.15;;
19414;SDS011;9843;48.882;12.592;2023-05-21T12:03:04;15.68;;;5.68;;
19414;SDS011;9843;48.882;12.592;2023-05-21T12:05:43;6.28;;;4.90;;
19414;SDS011;9843;48.882;12.592;2023-05-21T12:08:11;8.98;;;5.05;;
19414;SDS011;9843;48.882;12.592;2023-05-21T12:10:38;3.90;;;3.50;;
19414;SDS011;9843;48.882;12.592;2023-05-21T12:13:05;13.50;;;4.72;;
19414;SDS011;9843;48.882;12.592;2023-05-21T12:15:33;19.85;;;6.68;;
19414;SDS011;9843;48.882;12.592;2023-05-21T12:18:00;17.92;;;5.70;;
19414;SDS011;9843;48.882;12.592;2023-05-21T12:20:27;4.45;;;4.03;;
19414;SDS011;9843;48.882;12.592;2023-05-21T12:22:55;5.53;;;4.78;;
19414;SDS011;9843;48.882;12.592;2023-05-21T12:25:25;7.15;;;4.85;;
19414;SDS011;9843;48.882;12.592;2023-05-21T12:27:52;6.68;;;5.47;;
19414;SDS011;9843;48.882;12.592;2023-05-21T12:30:21;7.90;;;4.53;;
19414;SDS011;9843;48.882;12.592;2023-05-21T12:32:48;7.38;;;4.38;;
19414;SDS011;9843;48.882;12.592;2023-05-21T12:35:19;5.15;;;3.88;;
19414;SDS011;9843;48.882;12.592;2023-05-21T12:37:46;5.70;;;4.43;;
19414;SDS011;9843;48.882;12.592;2023-05-21T12:40:14;5.18;;;4.68;;
19414;SDS011;9843;48.882;12.592;2023-05-21T12:42:43;12.07;;;4.43;;
19414;SDS011;9843;48.882;12.592;2023-05-21T12:45:10;4.80;;;4.40;;
19414;SDS011;9843;48.882;12.592;2023-05-21T12:47:37;8.50;;;5.13;;
19414;SDS011;9843;48.882;12.592;2023-05-21T12:50:06;4.72;;;4.10;;
19414;SDS011;9843;48.882;12.592;2023-05-21T12:52:35;5.43;;;4.70;;
19414;SDS011;9843;48.882;12.592;2023-05-21T12:55:03;5.35;;;4.22;;
19414;SDS011;9843;48.882;12.592;2023-05-21T12:57:33;7.20;;;4.32;;
19414;SDS011;9843;48.882;12.592;2023-05-21T13:00:02;12.88;;;6.07;;
19414;SDS011;9843;48.882;12.592;2023-05-21T13:02:31;6.57;;;5.68;;
19414;SDS011;9843;48.882;12.592;2023-05-21T13:04:59;8.13;;;4.60;;
19414;SDS011;9843;48.882;12.592;2023-05-21T13:07:27;8.05;;;4.40;;
19414;SDS011;9843;48.882;12.592;2023-05-21T13:09:54;6.47;;;5.55;;
19414;SDS011;9843;48.882;12.592;2023-05-21T13:12:21;7.82;;;4.38;;
19414;SDS011;9843;48.882;12.592;2023-05-21T13:14:49;6.82;;;4.20;;
19414;SDS011;9843;48.882;12.592;2023-05-21T13:17:18;6.15;;;4.70;;
19414;SDS011;9843;48.882;12.592;2023-05-21T13:20:02;9.13;;;5.25;;
19414;SDS011;9843;48.882;12.592;2023-05-21T13:22:30;6.97;;;3.90;;
19414;SDS011;9843;48.882;12.592;2023-05-21T13:24:58;8.30;;;4.90;;
19414;SDS011;9843;48.882;12.592;2023-05-21T13:27:25;10.13;;;4.15;;
19414;SDS011;9843;48.882;12.592;2023-05-21T13:29:52;5.45;;;4.88;;
19414;SDS011;9843;48.882;12.592;2023-05-21T13:32:20;5.78;;;5.10;;
19414;SDS011;9843;48.882;12.592;2023-05-21T13:34:47;5.63;;;5.13;;
19414;SDS011;9843;48.882;12.592;2023-05-21T13:37:15;5.90;;;4.97;;
19414;SDS011;9843;48.882;12.592;2023-05-21T13:39:42;6.93;;;4.90;;
19414;SDS011;9843;48.882;12.592;2023-05-21T13:42:09;5.50;;;4.95;;
19414;SDS011;9843;48.882;12.592;2023-05-21T13:44:36;14.30;;;5.20;;
19414;SDS011;9843;48.882;12.592;2023-05-21T13:47:03;7.63;;;4.38;;
19414;SDS011;9843;48.882;12.592;2023-05-21T13:49:32;6.00;;;5.03;;
19414;SDS011;9843;48.882;12.592;2023-05-21T13:52:00;5.38;;;4.30;;
19414;SDS011;9843;48.882;12.592;2023-05-21T13:54:27;6.85;;;5.82;;
19414;SDS011;9843;48.882;12.592;2023-05-21T13:56:54;7.38;;;4.82;;
19414;SDS011;9843;48.882;12.592;2023-05-21T13:59:22;9.63;;;5.25;;
19414;SDS011;9843;48.882;12.592;2023-05-21T14:01:49;5.60;;;4.50;;
19414;SDS011;9843;48.882;12.592;2023-05-21T14:04:16;5.38;;;4.80;;
19414;SDS011;9843;48.882;12.592;2023-05-21T14:06:45;7.63;;;5.95;;
19414;SDS011;9843;48.882;12.592;2023-05-21T14:09:12;7.43;;;4.75;;
19414;SDS011;9843;48.882;12.592;2023-05-21T14:11:39;5.35;;;4.55;;
19414;SDS011;9843;48.882;12.592;2023-05-21T14:14:06;5.80;;;5.05;;
19414;SDS011;9843;48.882;12.592;2023-05-21T14:16:33;7.05;;;5.07;;
19414;SDS011;9843;48.882;12.592;2023-05-21T14:19:00;5.95;;;5.35;;
19414;SDS011;9843;48.882;12.592;2023-05-21T14:21:27;5.75;;;4.53;;
19414;SDS011;9843;48.882;12.592;2023-05-21T14:23:56;6.03;;;5.20;;
19414;SDS011;9843;48.882;12.592;2023-05-21T14:26:24;10.25;;;4.95;;
19414;SDS011;9843;48.882;12.592;2023-05-21T14:28:51;5.88;;;4.68;;
19414;SDS011;9843;48.882;12.592;2023-05-21T14:31:18;6.35;;;4.70;;
19414;SDS011;9843;48.882;12.592;2023-05-21T14:33:47;12.27;;;5.05;;
19414;SDS011;9843;48.882;12.592;2023-05-21T14:36:14;9.95;;;5.22;;
19414;SDS011;9843;48.882;12.592;2023-05-21T14:38:41;7.53;;;4.93;;
19414;SDS011;9843;48.882;12.592;2023-05-21T14:41:10;8.55;;;5.85;;
19414;SDS011;9843;48.882;12.592;2023-05-21T14:43:37;6.10;;;4.78;;
19414;SDS011;9843;48.882;12.592;2023-05-21T14:46:04;7.65;;;5.95;;